createdAt,value
2022-09-21T00:01:14.372Z,7.15
2022-09-21T00:03:42.184Z,11.35
2022-09-21T00:06:11.477Z,5.15
2022-09-21T00:08:38.523Z,7.80
2022-09-21T00:11:06.098Z,3.88
2022-09-21T00:13:33.734Z,2.42
2022-09-21T00:16:00.601Z,1.40
2022-09-21T00:18:27.442Z,1.40
2022-09-21T00:20:54.092Z,1.85
2022-09-21T00:23:20.835Z,1.30
2022-09-21T00:25:47.577Z,1.27
2022-09-21T00:28:14.211Z,1.70
2022-09-21T00:30:40.831Z,1.70
2022-09-21T00:33:07.429Z,2.05
2022-09-21T00:35:34.440Z,1.23
2022-09-21T00:38:02.544Z,1.40
2022-09-21T00:40:29.910Z,1.73
2022-09-21T00:43:16.561Z,1.67
2022-09-21T00:45:46.877Z,1.77
2022-09-21T00:48:14.456Z,1.30
2022-09-21T00:50:48.654Z,1.75
2022-09-21T00:53:16.377Z,1.73
2022-09-21T00:55:54.317Z,1.73
2022-09-21T00:58:26.055Z,1.52
2022-09-21T01:00:52.951Z,1.15
2022-09-21T01:03:19.715Z,1.95
2022-09-21T01:05:46.314Z,1.48
2022-09-21T01:08:15.742Z,1.75
2022-09-21T01:11:08.215Z,1.33
2022-09-21T01:13:59.364Z,1.60
2022-09-21T01:16:48.795Z,1.50
2022-09-21T01:19:43.646Z,1.50
2022-09-21T01:22:41.967Z,1.63
2022-09-21T01:25:38.829Z,1.50
2022-09-21T01:28:26.290Z,1.58
2022-09-21T01:30:54.562Z,1.90
2022-09-21T01:33:30.976Z,1.52
2022-09-21T01:36:19.913Z,1.92
2022-09-21T01:38:52.998Z,1.55
2022-09-21T01:41:23.564Z,2.58
2022-09-21T01:43:55.591Z,1.50
2022-09-21T01:46:25.654Z,1.80
2022-09-21T01:49:00.947Z,2.08
2022-09-21T01:51:28.565Z,1.42
2022-09-21T01:54:01.597Z,1.40
2022-09-21T01:56:36.010Z,1.30
2022-09-21T01:59:18.214Z,1.40
2022-09-21T02:01:59.764Z,1.20
2022-09-21T02:04:27.059Z,1.83
2022-09-21T02:06:54.974Z,2.33
2022-09-21T02:09:23.290Z,1.92
2022-09-21T02:11:49.932Z,1.80
2022-09-21T02:14:22.326Z,1.38
2022-09-21T02:17:10.347Z,1.38
2022-09-21T02:19:55.538Z,1.65
2022-09-21T02:22:29.272Z,1.20
2022-09-21T02:25:16.032Z,1.80
2022-09-21T02:28:14.386Z,1.23
2022-09-21T02:30:47.800Z,1.40
2022-09-21T02:33:24.460Z,1.85
2022-09-21T02:36:12.738Z,1.88
2022-09-21T02:38:56.987Z,1.30
2022-09-21T02:41:29.109Z,1.58
2022-09-21T02:44:07.483Z,1.55
2022-09-21T02:46:54.815Z,1.65
2022-09-21T02:49:27.936Z,1.58
2022-09-21T02:51:59.292Z,1.90
2022-09-21T02:54:31.094Z,2.13
2022-09-21T02:56:59.624Z,1.30
2022-09-21T02:59:27.442Z,1.75
2022-09-21T03:01:55.746Z,1.73
2022-09-21T03:04:23.129Z,2.20
2022-09-21T03:06:49.892Z,2.20
2022-09-21T03:09:17.139Z,2.13
2022-09-21T03:11:43.738Z,2.10
2022-09-21T03:14:10.397Z,2.08
2022-09-21T03:16:36.991Z,1.65
2022-09-21T03:19:03.905Z,1.70
2022-09-21T03:21:30.827Z,1.70
2022-09-21T03:23:57.420Z,1.80
2022-09-21T03:26:24.170Z,1.83
2022-09-21T03:28:51.099Z,1.75
2022-09-21T03:31:17.730Z,1.60
2022-09-21T03:33:44.358Z,1.77
2022-09-21T03:36:11.475Z,1.60
2022-09-21T03:38:38.680Z,1.60
2022-09-21T03:41:05.920Z,1.50
2022-09-21T03:43:32.990Z,1.65
2022-09-21T03:45:59.648Z,2.00
2022-09-21T03:48:26.298Z,1.70
2022-09-21T03:50:53.567Z,1.70
2022-09-21T03:53:20.158Z,1.83
2022-09-21T03:55:46.768Z,1.63
2022-09-21T03:58:13.716Z,1.95
2022-09-21T04:00:40.310Z,1.67
2022-09-21T04:03:06.895Z,1.80
2022-09-21T04:05:33.554Z,1.90
2022-09-21T04:08:02.032Z,1.80
2022-09-21T04:10:33.215Z,1.77
2022-09-21T04:13:01.463Z,1.70
2022-09-21T04:15:29.555Z,2.28
2022-09-21T04:17:56.574Z,2.15
2022-09-21T04:20:23.592Z,1.92
2022-09-21T04:22:51.580Z,1.60
2022-09-21T04:25:18.944Z,2.05
2022-09-21T04:27:45.927Z,1.63
2022-09-21T04:30:14.354Z,2.35
2022-09-21T04:32:41.115Z,1.73
2022-09-21T04:35:08.468Z,2.28
2022-09-21T04:37:35.111Z,1.98
2022-09-21T04:40:02.156Z,1.50
2022-09-21T04:42:29.146Z,2.08
2022-09-21T04:44:55.981Z,2.65
2022-09-21T04:47:24.610Z,2.65
2022-09-21T04:49:52.704Z,2.42
2022-09-21T04:52:19.632Z,2.20
2022-09-21T04:54:47.174Z,1.80
2022-09-21T04:57:14.851Z,1.67
2022-09-21T04:59:41.489Z,2.00
2022-09-21T05:02:08.993Z,1.98
2022-09-21T05:04:35.634Z,2.08
2022-09-21T05:07:02.312Z,2.83
2022-09-21T05:09:47.713Z,2.55
2022-09-21T05:12:14.305Z,1.65
2022-09-21T05:14:41.168Z,2.17
2022-09-21T05:17:07.809Z,2.10
2022-09-21T05:19:34.354Z,1.63
2022-09-21T05:22:00.920Z,1.60
2022-09-21T05:24:27.481Z,1.92
2022-09-21T05:26:54.057Z,1.80
2022-09-21T05:29:21.016Z,2.05
2022-09-21T05:32:20.621Z,2.28
2022-09-21T05:34:56.395Z,2.25
2022-09-21T05:37:55.082Z,2.42
2022-09-21T05:40:22.177Z,2.30
2022-09-21T05:42:49.312Z,2.60
2022-09-21T05:45:18.153Z,1.67
2022-09-21T05:48:24.852Z,1.73
2022-09-21T05:50:57.544Z,2.10
2022-09-21T05:53:49.960Z,2.33
2022-09-21T05:56:36.364Z,2.53
2022-09-21T05:59:11.010Z,3.00
2022-09-21T06:01:49.703Z,3.42
2022-09-21T06:04:17.010Z,3.13
2022-09-21T06:06:43.617Z,2.95
2022-09-21T06:09:10.266Z,2.47
2022-09-21T06:11:36.971Z,2.28
2022-09-21T06:14:03.581Z,2.65
2022-09-21T06:16:41.061Z,2.60
2022-09-21T06:19:11.443Z,2.33
2022-09-21T06:21:38.057Z,3.80
2022-09-21T06:24:04.901Z,3.20
2022-09-21T06:26:31.554Z,4.57
2022-09-21T06:28:58.201Z,5.03
2022-09-21T06:31:26.216Z,5.55
2022-09-21T06:33:52.897Z,5.47
2022-09-21T06:36:19.513Z,4.88
2022-09-21T06:38:46.108Z,5.53
2022-09-21T06:41:16.213Z,4.47
2022-09-21T06:43:45.259Z,4.88
2022-09-21T06:46:11.983Z,5.00
2022-09-21T06:48:38.556Z,4.65
2022-09-21T06:51:06.626Z,4.78
2022-09-21T06:53:34.616Z,6.15
2022-09-21T06:56:06.482Z,4.95
2022-09-21T06:58:37.760Z,4.38
2022-09-21T07:01:09.529Z,5.38
2022-09-21T07:03:37.129Z,4.55
2022-09-21T07:06:04.526Z,2.00
2022-09-21T07:11:17.835Z,2.83
2022-09-21T07:13:45.514Z,2.33
2022-09-21T07:16:12.607Z,2.10
2022-09-21T07:18:43.819Z,2.63
2022-09-21T07:21:11.762Z,2.03
2022-09-21T07:23:38.716Z,2.25
2022-09-21T07:26:09.443Z,2.28
2022-09-21T07:28:36.292Z,2.53
2022-09-21T07:31:08.839Z,2.40
2022-09-21T07:33:36.414Z,2.15
2022-09-21T07:36:10.045Z,3.40
2022-09-21T07:38:42.287Z,3.20
2022-09-21T07:41:10.702Z,2.78
2022-09-21T07:43:39.234Z,3.45
2022-09-21T07:46:14.493Z,2.78
2022-09-21T07:48:41.556Z,2.95
2022-09-21T07:51:12.024Z,2.35
2022-09-21T07:53:41.083Z,2.50
2022-09-21T07:56:10.572Z,2.22
2022-09-21T07:58:56.220Z,2.03
2022-09-21T08:01:23.787Z,2.00
2022-09-21T08:03:55.935Z,2.45
2022-09-21T08:06:24.688Z,2.10
2022-09-21T08:08:56.616Z,3.35
2022-09-21T08:11:26.014Z,1.67
2022-09-21T08:13:54.794Z,2.83
2022-09-21T08:16:21.882Z,2.20
2022-09-21T08:18:48.513Z,2.20
2022-09-21T08:21:15.142Z,2.15
2022-09-21T08:23:42.956Z,1.77
2022-09-21T08:26:18.766Z,1.90
2022-09-21T08:28:49.243Z,2.70
2022-09-21T08:31:21.206Z,1.75
2022-09-21T08:33:49.796Z,1.95
2022-09-21T08:36:16.899Z,1.85
2022-09-21T08:38:43.533Z,1.85
2022-09-21T08:41:24.409Z,2.13
2022-09-21T08:44:00.161Z,2.33
2022-09-21T08:46:30.377Z,2.85
2022-09-21T08:49:10.090Z,1.98
2022-09-21T08:54:20.814Z,1.75
2022-09-21T08:57:04.346Z,2.38
2022-09-21T08:59:31.500Z,2.45
2022-09-21T09:02:00.754Z,2.45
2022-09-21T09:04:51.604Z,2.13
2022-09-21T09:07:32.234Z,1.85
2022-09-21T09:10:30.341Z,2.15
2022-09-21T09:13:25.192Z,1.90
2022-09-21T09:16:24.619Z,2.65
2022-09-21T09:19:15.557Z,2.78
2022-09-21T09:21:43.634Z,2.13
2022-09-21T09:24:31.893Z,2.33
2022-09-21T09:27:21.101Z,3.35
2022-09-21T09:30:02.936Z,2.20
2022-09-21T09:32:41.149Z,2.20
2022-09-21T09:35:22.225Z,2.50
2022-09-21T09:37:50.731Z,3.10
2022-09-21T09:40:47.189Z,2.70
2022-09-21T09:43:41.308Z,2.20
2022-09-21T09:46:17.921Z,1.65
2022-09-21T09:49:12.601Z,1.95
2022-09-21T09:51:40.568Z,1.60
2022-09-21T09:54:17.374Z,2.30
2022-09-21T09:56:44.062Z,1.98
2022-09-21T09:59:24.966Z,1.90
2022-09-21T10:02:21.145Z,1.42
2022-09-21T10:05:06.116Z,1.58
2022-09-21T10:07:41.469Z,1.50
2022-09-21T10:10:32.945Z,1.40
2022-09-21T10:13:22.967Z,1.63
2022-09-21T10:15:57.006Z,1.70
2022-09-21T10:18:27.139Z,1.80
2022-09-21T10:21:01.181Z,1.98
2022-09-21T10:23:30.227Z,1.80
2022-09-21T10:26:07.883Z,1.25
2022-09-21T10:28:35.816Z,1.52
2022-09-21T10:31:19.432Z,1.55
2022-09-21T10:33:53.183Z,1.80
2022-09-21T10:36:38.825Z,1.50
2022-09-21T10:39:21.143Z,1.20
2022-09-21T10:42:03.379Z,1.25
2022-09-21T10:44:44.823Z,1.17
2022-09-21T10:47:25.697Z,1.05
2022-09-21T10:49:55.241Z,1.10
2022-09-21T10:54:55.755Z,0.90
2022-09-21T10:57:25.355Z,0.95
2022-09-21T11:02:31.346Z,0.80
2022-09-21T11:05:01.052Z,0.60
2022-09-21T11:07:31.155Z,0.43
2022-09-21T11:10:00.727Z,0.82
2022-09-21T11:12:53.110Z,0.90
2022-09-21T11:15:50.511Z,0.90
2022-09-21T11:18:30.921Z,1.02
2022-09-21T11:21:13.035Z,0.88
2022-09-21T11:24:10.433Z,0.70
2022-09-21T11:32:23.666Z,0.90
2022-09-21T11:35:24.185Z,0.75
2022-09-21T11:38:10.595Z,0.90
2022-09-21T11:41:03.835Z,0.95
2022-09-21T11:43:50.357Z,0.73
2022-09-21T11:46:33.837Z,0.93
2022-09-21T11:49:28.797Z,1.20
2022-09-21T11:51:59.414Z,1.38
2022-09-21T11:54:49.103Z,0.77
2022-09-21T11:57:58.283Z,1.15
2022-09-21T12:02:56.145Z,0.70
2022-09-21T12:05:36.899Z,1.27
2022-09-21T12:08:22.107Z,1.23
2022-09-21T12:11:03.149Z,1.65
2022-09-21T12:13:42.761Z,0.80
2022-09-21T12:16:25.030Z,0.93
2022-09-21T12:19:09.573Z,0.40
2022-09-21T12:21:44.621Z,0.60
2022-09-21T12:24:31.959Z,4.85
2022-09-21T12:27:08.602Z,1.10
2022-09-21T12:29:47.663Z,1.25
2022-09-21T12:32:26.957Z,1.20
2022-09-21T12:35:00.747Z,1.20
2022-09-21T12:37:34.142Z,1.48
2022-09-21T12:40:12.540Z,0.70
2022-09-21T12:42:58.367Z,0.82
2022-09-21T12:45:33.189Z,1.30
2022-09-21T12:48:25.638Z,0.60
2022-09-21T12:50:57.374Z,0.77
2022-09-21T12:53:27.233Z,0.47
2022-09-21T12:56:41.751Z,1.17
2022-09-21T12:59:25.796Z,1.15
2022-09-21T13:01:58.556Z,1.13
2022-09-21T13:04:34.497Z,1.20
2022-09-21T13:07:13.278Z,0.98
2022-09-21T13:09:42.339Z,0.97
2022-09-21T13:12:18.314Z,0.70
2022-09-21T13:14:50.757Z,0.70
2022-09-21T13:17:30.126Z,1.08
2022-09-21T13:20:05.336Z,0.63
2022-09-21T13:22:35.185Z,0.50
2022-09-21T13:25:37.743Z,0.70
2022-09-21T13:28:09.135Z,0.50
2022-09-21T13:30:39.216Z,0.32
2022-09-21T13:33:25.837Z,0.40
2022-09-21T13:36:00.795Z,0.68
2022-09-21T13:38:32.004Z,0.70
2022-09-21T13:41:04.534Z,0.82
2022-09-21T13:44:05.786Z,1.08
2022-09-21T13:46:35.547Z,0.85
2022-09-21T13:49:17.787Z,0.60
2022-09-21T13:52:22.521Z,0.68
2022-09-21T13:54:53.824Z,0.52
2022-09-21T13:57:23.133Z,0.63
2022-09-21T14:00:09.016Z,0.52
2022-09-21T14:02:41.382Z,0.63
2022-09-21T14:05:44.941Z,0.50
2022-09-21T14:08:14.736Z,0.60
2022-09-21T14:11:07.959Z,0.80
2022-09-21T14:13:35.957Z,0.80
2022-09-21T14:16:34.052Z,0.90
2022-09-21T14:19:02.463Z,0.68
2022-09-21T14:21:29.782Z,0.75
2022-09-21T14:24:34.157Z,0.75
2022-09-21T14:27:25.249Z,0.60
2022-09-21T14:30:16.206Z,0.55
2022-09-21T14:32:53.076Z,1.15
2022-09-21T14:35:25.038Z,0.52
2022-09-21T14:38:20.757Z,0.55
2022-09-21T14:40:50.948Z,0.65
2022-09-21T14:43:35.304Z,0.60
2022-09-21T14:46:24.656Z,0.50
2022-09-21T14:49:13.407Z,0.90
2022-09-21T14:52:18.272Z,0.73
2022-09-21T14:54:48.657Z,0.65
2022-09-21T14:57:35.360Z,0.50
2022-09-21T15:00:23.397Z,0.70
2022-09-21T15:03:08.137Z,0.68
2022-09-21T15:05:40.305Z,0.50
2022-09-21T15:08:44.191Z,0.50
2022-09-21T15:11:30.620Z,0.60
2022-09-21T15:14:15.790Z,0.57
2022-09-21T15:16:50.322Z,0.52
2022-09-21T15:19:27.827Z,0.60
2022-09-21T15:22:14.342Z,0.80
2022-09-21T15:24:50.441Z,0.50
2022-09-21T15:27:19.132Z,0.50
2022-09-21T15:29:51.459Z,0.60
2022-09-21T15:32:39.158Z,0.50
2022-09-21T15:35:23.429Z,0.77
2022-09-21T15:37:51.575Z,0.50
2022-09-21T15:40:26.034Z,0.60
2022-09-21T15:43:11.519Z,0.80
2022-09-21T15:45:51.854Z,0.57
2022-09-21T15:48:20.576Z,0.50
2022-09-21T15:50:57.829Z,0.60
2022-09-21T15:53:38.563Z,0.40
2022-09-21T15:56:06.582Z,0.40
2022-09-21T15:58:37.340Z,0.40
2022-09-21T16:01:21.347Z,0.57
2022-09-21T16:03:49.777Z,0.50
2022-09-21T16:06:37.179Z,0.60
2022-09-21T16:09:32.859Z,0.40
2022-09-21T16:11:59.474Z,0.55
2022-09-21T16:14:44.918Z,0.60
2022-09-21T16:17:22.467Z,0.52
2022-09-21T16:19:50.775Z,0.50
2022-09-21T16:22:25.372Z,0.82
2022-09-21T16:24:55.236Z,0.60
2022-09-21T16:27:27.890Z,1.00
2022-09-21T16:29:55.954Z,0.50
2022-09-21T16:32:33.754Z,0.50
2022-09-21T16:35:29.014Z,0.68
2022-09-21T16:37:58.813Z,0.60
2022-09-21T16:40:26.874Z,0.70
2022-09-21T16:42:54.182Z,0.70
2022-09-21T16:45:31.844Z,0.50
2022-09-21T16:47:59.636Z,0.68
2022-09-21T16:50:26.545Z,0.40
2022-09-21T16:52:53.248Z,0.60
2022-09-21T16:55:22.424Z,0.73
2022-09-21T16:57:51.009Z,0.70
2022-09-21T17:00:20.565Z,2.90
2022-09-21T17:02:48.391Z,1.05
2022-09-21T17:05:17.990Z,1.55
2022-09-21T17:07:53.855Z,1.98
2022-09-21T17:10:22.829Z,1.77
2022-09-21T17:12:51.023Z,2.00
2022-09-21T17:15:17.860Z,5.38
2022-09-21T17:17:44.527Z,2.65
2022-09-21T17:20:39.613Z,2.53
2022-09-21T17:23:06.185Z,1.45
2022-09-21T17:25:34.140Z,2.10
2022-09-21T17:28:01.982Z,2.63
2022-09-21T17:30:29.243Z,1.70
2022-09-21T17:32:58.151Z,1.30
2022-09-21T17:35:38.901Z,1.23
2022-09-21T17:38:06.082Z,1.75
2022-09-21T17:40:33.062Z,2.28
2022-09-21T17:43:27.145Z,2.00
2022-09-21T17:46:03.651Z,2.45
2022-09-21T17:48:33.878Z,1.70
2022-09-21T17:51:01.235Z,1.92
2022-09-21T17:53:34.499Z,1.88
2022-09-21T17:56:32.823Z,1.60
2022-09-21T17:59:04.937Z,1.27
2022-09-21T18:01:36.786Z,2.55
2022-09-21T18:04:04.999Z,2.30
2022-09-21T18:06:34.083Z,2.25
2022-09-21T18:09:01.678Z,1.95
2022-09-21T18:12:04.865Z,1.50
2022-09-21T18:14:54.857Z,1.33
2022-09-21T18:17:24.247Z,1.20
2022-09-21T18:20:17.090Z,1.83
2022-09-21T18:23:14.441Z,1.38
2022-09-21T18:25:50.217Z,1.58
2022-09-21T18:28:41.561Z,2.38
2022-09-21T18:31:17.509Z,2.03
2022-09-21T18:33:59.252Z,3.10
2022-09-21T18:36:32.256Z,2.05
2022-09-21T18:39:13.724Z,1.50
2022-09-21T18:42:10.103Z,1.42
2022-09-21T18:44:55.403Z,1.38
2022-09-21T18:47:37.467Z,1.10
2022-09-21T18:50:04.043Z,1.70
2022-09-21T18:52:51.928Z,1.90
2022-09-21T18:55:26.819Z,3.65
2022-09-21T18:57:57.507Z,3.67
2022-09-21T19:00:31.458Z,1.70
2022-09-21T19:03:16.573Z,0.80
2022-09-21T19:06:13.391Z,0.80
2022-09-21T19:09:11.565Z,0.80
2022-09-21T19:12:11.218Z,2.05
2022-09-21T19:14:50.585Z,1.58
2022-09-21T19:17:37.147Z,1.15
2022-09-21T19:20:12.353Z,1.70
2022-09-21T19:22:56.031Z,1.02
2022-09-21T19:25:44.769Z,0.85
2022-09-21T19:28:49.829Z,0.60
2022-09-21T19:31:20.958Z,0.70
2022-09-21T19:33:51.052Z,1.20
2022-09-21T19:36:19.126Z,1.17
2022-09-21T19:38:46.060Z,1.13
2022-09-21T19:41:19.070Z,1.30
2022-09-21T19:43:51.724Z,2.42
2022-09-21T19:46:36.228Z,1.40
2022-09-21T19:49:18.037Z,2.75
2022-09-21T19:51:50.310Z,1.17
2022-09-21T19:54:41.673Z,2.70
2022-09-21T19:57:39.074Z,2.35
2022-09-21T20:00:16.551Z,1.15
2022-09-21T20:02:53.142Z,1.50
2022-09-21T20:05:23.210Z,0.90
2022-09-21T20:08:18.153Z,1.10
2022-09-21T20:11:01.778Z,0.85
2022-09-21T20:14:00.517Z,0.85
2022-09-21T20:16:39.048Z,1.38
2022-09-21T20:19:17.480Z,0.82
2022-09-21T20:21:46.210Z,0.98
2022-09-21T20:24:25.344Z,0.90
2022-09-21T20:26:52.281Z,1.15
2022-09-21T20:29:20.068Z,1.00
2022-09-21T20:31:48.896Z,1.10
2022-09-21T20:34:15.707Z,0.83
2022-09-21T20:36:42.269Z,1.27
2022-09-21T20:39:09.684Z,1.13
2022-09-21T20:41:37.845Z,1.50
2022-09-21T20:44:04.597Z,0.70
2022-09-21T20:46:31.622Z,1.00
2022-09-21T20:49:04.746Z,1.00
2022-09-21T20:51:33.858Z,1.10
2022-09-21T20:54:04.583Z,1.42
2022-09-21T20:56:31.566Z,1.30
2022-09-21T20:58:59.173Z,2.13
2022-09-21T21:01:26.882Z,1.45
2022-09-21T21:04:01.448Z,4.97
2022-09-21T21:06:28.692Z,7.55
2022-09-21T21:08:55.286Z,7.10
2022-09-21T21:11:22.269Z,7.72
2022-09-21T21:13:49.118Z,3.53
2022-09-21T21:16:15.778Z,1.60
2022-09-21T21:18:42.731Z,2.30
2022-09-21T21:21:09.627Z,1.85
2022-09-21T21:23:56.695Z,1.50
2022-09-21T21:26:38.250Z,1.77
2022-09-21T21:29:10.029Z,1.55
2022-09-21T21:31:36.782Z,1.35
2022-09-21T21:34:03.423Z,1.30
2022-09-21T21:36:29.979Z,1.50
2022-09-21T21:38:56.749Z,1.42
2022-09-21T21:41:23.519Z,1.38
2022-09-21T21:43:50.255Z,1.48
2022-09-21T21:46:17.045Z,1.50
2022-09-21T21:48:45.553Z,1.55
2022-09-21T21:51:12.749Z,1.30
2022-09-21T21:53:40.337Z,1.17
2022-09-21T21:56:09.623Z,1.48
2022-09-21T21:58:36.840Z,1.27
2022-09-21T22:01:21.387Z,1.00
2022-09-21T22:03:53.795Z,1.38
2022-09-21T22:06:21.002Z,1.30
2022-09-21T22:08:47.671Z,1.45
2022-09-21T22:11:14.724Z,1.52
2022-09-21T22:13:41.779Z,1.80
2022-09-21T22:16:17.272Z,1.27
2022-09-21T22:18:45.069Z,2.00
2022-09-21T22:21:14.345Z,1.65
2022-09-21T22:23:41.237Z,2.13
2022-09-21T22:26:13.188Z,1.15
2022-09-21T22:28:41.769Z,2.17
2022-09-21T22:31:11.039Z,1.88
2022-09-21T22:33:38.303Z,1.17
2022-09-21T22:36:13.901Z,0.98
2022-09-21T22:38:43.094Z,1.50
2022-09-21T22:41:18.614Z,1.40
2022-09-21T22:43:46.771Z,1.35
2022-09-21T22:46:16.399Z,1.50
2022-09-21T22:51:10.590Z,1.40
2022-09-21T22:53:37.523Z,2.38
2022-09-21T22:56:09.246Z,1.70
2022-09-21T22:58:38.867Z,4.20
2022-09-21T23:01:27.759Z,2.03
2022-09-21T23:04:03.625Z,1.73
2022-09-21T23:06:33.483Z,2.10
2022-09-21T23:09:02.678Z,1.42
2022-09-21T23:11:32.928Z,2.53
2022-09-21T23:14:00.319Z,1.42
2022-09-21T23:16:28.661Z,1.58
2022-09-21T23:18:56.545Z,1.73
2022-09-21T23:21:25.539Z,2.42
2022-09-21T23:24:00.785Z,2.10
2022-09-21T23:26:31.932Z,1.83
2022-09-21T23:29:01.234Z,2.70
2022-09-21T23:31:29.230Z,4.47
2022-09-21T23:33:58.820Z,4.18
2022-09-21T23:36:30.771Z,2.08
2022-09-21T23:38:58.248Z,1.23
2022-09-21T23:41:34.807Z,1.45
2022-09-21T23:44:02.582Z,1.10
2022-09-21T23:46:35.180Z,1.15
2022-09-21T23:49:02.418Z,7.82
2022-09-21T23:51:31.946Z,7.35
2022-09-21T23:53:59.752Z,2.50
2022-09-21T23:56:27.130Z,2.22
2022-09-21T23:58:53.831Z,1.55
